createdAt,value
2023-01-11T00:01:13.745Z,86.60
2023-01-11T00:03:41.011Z,84.90
2023-01-11T00:06:09.616Z,84.20
2023-01-11T00:08:37.340Z,84.70
2023-01-11T00:11:05.000Z,84.40
2023-01-11T00:13:32.455Z,84.20
2023-01-11T00:16:05.085Z,83.70
2023-01-11T00:18:32.388Z,84.50
2023-01-11T00:21:05.310Z,83.80
2023-01-11T00:23:39.555Z,81.00
2023-01-11T00:26:08.787Z,80.80
2023-01-11T00:28:36.140Z,81.50
2023-01-11T00:31:06.881Z,81.00
2023-01-11T00:48:13.167Z,77.50
2023-01-11T00:50:44.256Z,83.90
2023-01-11T00:53:14.204Z,84.00
2023-01-11T00:55:42.827Z,84.70
2023-01-11T00:58:10.453Z,84.60
2023-01-11T01:00:37.928Z,86.60
2023-01-11T01:03:05.559Z,88.10
2023-01-11T01:05:33.662Z,86.70
2023-01-11T01:08:01.168Z,86.90
2023-01-11T01:10:28.654Z,90.40
2023-01-11T01:13:14.590Z,92.00
2023-01-11T01:15:43.028Z,90.80
2023-01-11T01:18:10.579Z,90.90
2023-01-11T01:20:38.072Z,89.60
2023-01-11T01:23:05.709Z,90.00
2023-01-11T01:25:33.301Z,90.50
2023-01-11T01:28:01.679Z,91.30
2023-01-11T01:30:29.175Z,90.00
2023-01-11T01:32:56.832Z,90.80
2023-01-11T01:35:24.502Z,89.90
2023-01-11T01:37:51.966Z,91.60
2023-01-11T01:40:19.465Z,90.70
2023-01-11T01:42:47.073Z,91.40
2023-01-11T01:45:24.016Z,92.40
2023-01-11T01:48:00.364Z,91.80
2023-01-11T01:50:33.511Z,93.10
2023-01-11T01:53:10.135Z,93.20
2023-01-11T01:55:45.252Z,90.60
2023-01-11T01:58:16.719Z,90.50
2023-01-11T08:13:16.933Z,93.80
2023-01-11T08:15:56.275Z,95.20
2023-01-11T08:23:12.432Z,93.20
2023-01-11T08:30:28.266Z,93.00
2023-01-11T10:05:48.265Z,79.60
2023-01-11T10:18:26.622Z,81.40
2023-01-11T10:18:45.502Z,80.80
2023-01-11T10:21:44.213Z,79.70
2023-01-11T10:24:21.483Z,79.50
2023-01-11T10:26:59.704Z,82.20
2023-01-11T10:29:35.639Z,77.20
2023-01-11T10:32:34.533Z,80.70
2023-01-11T10:35:44.567Z,79.00
2023-01-11T10:38:43.843Z,80.50
2023-01-11T10:41:26.328Z,77.20
2023-01-11T10:44:05.301Z,77.60
2023-01-11T10:46:42.944Z,77.20
2023-01-11T10:49:56.186Z,77.10
2023-01-11T10:52:41.890Z,78.60
2023-01-11T10:55:28.740Z,78.70
2023-01-11T10:58:22.655Z,78.10
2023-01-11T11:01:24.493Z,79.50
2023-01-11T11:04:21.209Z,78.40
2023-01-11T11:07:16.136Z,78.40
2023-01-11T11:10:15.145Z,78.00
2023-01-11T11:12:54.674Z,76.10
2023-01-11T11:15:31.978Z,78.60
2023-01-11T11:18:00.552Z,77.90
2023-01-11T11:20:33.997Z,77.00
2023-01-11T11:23:05.296Z,75.70
2023-01-11T12:16:05.950Z,72.50
2023-01-11T12:58:47.166Z,68.50
2023-01-11T13:47:25.016Z,67.60
2023-01-11T14:18:28.708Z,74.20
2023-01-11T14:21:14.021Z,77.40
2023-01-11T14:24:25.170Z,79.10
2023-01-11T14:27:22.051Z,80.30
2023-01-11T14:30:29.805Z,82.10
2023-01-11T14:33:57.285Z,84.00
2023-01-11T14:44:53.902Z,89.30
2023-01-11T14:48:09.180Z,90.60
2023-01-11T14:50:50.120Z,87.80
2023-01-11T14:53:40.282Z,87.20
2023-01-11T14:56:36.852Z,90.50
2023-01-11T14:59:24.680Z,91.90
2023-01-11T15:02:04.478Z,91.00
2023-01-11T15:04:55.421Z,91.00
2023-01-11T15:07:32.543Z,93.00
2023-01-11T15:10:37.786Z,94.50
2023-01-11T15:32:24.048Z,96.50
2023-01-11T15:34:54.962Z,97.00
2023-01-11T15:38:02.857Z,97.40
2023-01-11T15:40:34.227Z,97.80
2023-01-11T15:43:18.001Z,98.00
2023-01-11T15:46:13.315Z,98.40
2023-01-11T16:01:29.658Z,96.30
2023-01-11T16:05:18.920Z,96.50
2023-01-11T16:08:36.650Z,96.80
2023-01-11T16:11:46.993Z,97.60
2023-01-11T16:18:03.624Z,97.90
2023-01-11T16:20:32.306Z,98.40
2023-01-11T16:27:29.166Z,97.80
2023-01-11T16:47:19.520Z,97.90
2023-01-11T16:50:31.562Z,98.70
2023-01-11T23:02:18.028Z,99.90
2023-01-11T23:04:46.357Z,99.90
2023-01-11T23:07:13.942Z,99.90
2023-01-11T23:09:42.201Z,99.90
2023-01-11T23:12:31.296Z,99.90
2023-01-11T23:14:58.987Z,99.90
2023-01-11T23:17:29.250Z,99.90
2023-01-11T23:19:56.826Z,99.90
2023-01-11T23:22:24.780Z,99.90
2023-01-11T23:24:52.560Z,99.90
2023-01-11T23:27:20.338Z,99.90
2023-01-11T23:29:50.665Z,99.90
2023-01-11T23:32:18.291Z,99.90
2023-01-11T23:34:45.976Z,99.90
2023-01-11T23:37:13.752Z,99.90
2023-01-11T23:39:41.533Z,99.90
2023-01-11T23:42:28.820Z,99.90
2023-01-11T23:45:42.835Z,99.90
2023-01-11T23:48:41.181Z,99.90
2023-01-11T23:51:09.136Z,99.90
2023-01-11T23:53:40.735Z,99.90
2023-01-11T23:56:13.661Z,99.90
2023-01-11T23:58:44.096Z,99.90
